sensor_id;sensor_type;location;lat;lon;timestamp;pressure;altitude;pressure_sealevel;temperature;humidity
21753;BME280;11038;50.940;20.564;2022-09-21T00:01:30;98005.47;;;7.51;100.00
21753;BME280;11038;50.940;20.564;2022-09-21T00:03:03;98010.97;;;7.49;100.00
21753;BME280;11038;50.940;20.564;2022-09-21T00:04:35;98009.81;;;7.52;100.00
21753;BME280;11038;50.940;20.564;2022-09-21T00:06:12;98011.34;;;7.55;100.00
21753;BME280;11038;50.940;20.564;2022-09-21T00:07:45;98012.16;;;7.55;100.00
21753;BME280;11038;50.940;20.564;2022-09-21T00:09:17;98012.16;;;7.55;100.00
21753;BME280;11038;50.940;20.564;2022-09-21T00:10:50;98009.22;;;7.58;100.00
21753;BME280;11038;50.940;20.564;2022-09-21T00:12:22;98016.22;;;7.59;100.00
21753;BME280;11038;50.940;20.564;2022-09-21T00:13:58;98011.75;;;7.60;100.00
21753;BME280;11038;50.940;20.564;2022-09-21T00:15:32;98016.06;;;7.61;100.00
21753;BME280;11038;50.940;20.564;2022-09-21T00:17:04;98015.09;;;7.62;100.00
21753;BME280;11038;50.940;20.564;2022-09-21T00:18:36;98015.94;;;7.62;100.00
21753;BME280;11038;50.940;20.564;2022-09-21T00:20:09;98013.97;;;7.64;100.00
21753;BME280;11038;50.940;20.564;2022-09-21T00:21:41;98022.66;;;7.67;100.00
21753;BME280;11038;50.940;20.564;2022-09-21T00:23:14;98012.84;;;7.67;100.00
21753;BME280;11038;50.940;20.564;2022-09-21T00:24:46;98015.50;;;7.67;100.00
21753;BME280;11038;50.940;20.564;2022-09-21T00:26:25;98019.00;;;7.68;100.00
21753;BME280;11038;50.940;20.564;2022-09-21T00:27:58;98013.69;;;7.68;100.00
21753;BME280;11038;50.940;20.564;2022-09-21T00:29:30;98016.19;;;7.69;100.00
21753;BME280;11038;50.940;20.564;2022-09-21T00:31:05;98014.25;;;7.71;100.00
21753;BME280;11038;50.940;20.564;2022-09-21T00:32:38;98020.38;;;7.72;100.00
21753;BME280;11038;50.940;20.564;2022-09-21T00:34:11;98016.75;;;7.73;100.00
21753;BME280;11038;50.940;20.564;2022-09-21T00:35:43;98014.78;;;7.75;100.00
21753;BME280;11038;50.940;20.564;2022-09-21T00:37:15;98017.72;;;7.72;100.00
21753;BME280;11038;50.940;20.564;2022-09-21T00:38:57;98018.44;;;7.74;100.00
21753;BME280;11038;50.940;20.564;2022-09-21T00:40:31;98018.84;;;7.79;100.00
21753;BME280;11038;50.940;20.564;2022-09-21T00:42:09;98018.69;;;7.81;100.00
21753;BME280;11038;50.940;20.564;2022-09-21T00:43:47;98021.22;;;7.82;100.00
21753;BME280;11038;50.940;20.564;2022-09-21T00:45:20;98017.72;;;7.82;100.00
21753;BME280;11038;50.940;20.564;2022-09-21T00:46:56;98020.22;;;7.83;100.00
21753;BME280;11038;50.940;20.564;2022-09-21T00:48:30;98023.56;;;7.85;100.00
21753;BME280;11038;50.940;20.564;2022-09-21T00:50:09;98020.38;;;7.82;100.00
21753;BME280;11038;50.940;20.564;2022-09-21T00:51:44;98017.56;;;7.83;100.00
21753;BME280;11038;50.940;20.564;2022-09-21T00:53:17;98020.22;;;7.83;100.00
21753;BME280;11038;50.940;20.564;2022-09-21T00:54:59;98017.84;;;7.80;100.00
21753;BME280;11038;50.940;20.564;2022-09-21T00:56:35;98022.19;;;7.81;100.00
21753;BME280;11038;50.940;20.564;2022-09-21T00:58:13;98014.22;;;7.81;100.00
21753;BME280;11038;50.940;20.564;2022-09-21T00:59:50;98020.38;;;7.82;100.00
21753;BME280;11038;50.940;20.564;2022-09-21T01:01:23;98023.16;;;7.80;100.00
21753;BME280;11038;50.940;20.564;2022-09-21T01:02:56;98026.81;;;7.79;100.00
21753;BME280;11038;50.940;20.564;2022-09-21T01:04:33;98019.97;;;7.77;100.00
21753;BME280;11038;50.940;20.564;2022-09-21T01:06:06;98020.38;;;7.72;100.00
21753;BME280;11038;50.940;20.564;2022-09-21T01:07:47;98024.03;;;7.71;100.00
21753;BME280;11038;50.940;20.564;2022-09-21T01:09:19;98030.34;;;7.70;100.00
21753;BME280;11038;50.940;20.564;2022-09-21T01:11:35;98027.69;;;7.70;100.00
21753;BME280;11038;50.940;20.564;2022-09-21T01:15:40;98028.56;;;7.60;100.00
21753;BME280;11038;50.940;20.564;2022-09-21T01:17:35;98028.41;;;7.62;100.00
21753;BME280;11038;50.940;20.564;2022-09-21T01:21:20;98029.81;;;7.56;100.00
21753;BME280;11038;50.940;20.564;2022-09-21T01:30:46;98034.59;;;7.42;100.00
21753;BME280;11038;50.940;20.564;2022-09-21T01:34:37;98039.47;;;7.47;100.00
21753;BME280;11038;50.940;20.564;2022-09-21T01:36:15;98033.34;;;7.47;100.00
21753;BME280;11038;50.940;20.564;2022-09-21T01:37:59;98033.34;;;7.47;100.00
21753;BME280;11038;50.940;20.564;2022-09-21T01:39:34;98038.66;;;7.47;100.00
21753;BME280;11038;50.940;20.564;2022-09-21T01:41:13;98034.03;;;7.49;100.00
21753;BME280;11038;50.940;20.564;2022-09-21T01:42:47;98033.75;;;7.52;100.00
21753;BME280;11038;50.940;20.564;2022-09-21T01:44:26;98028.44;;;7.52;100.00
21753;BME280;11038;50.940;20.564;2022-09-21T01:46:05;98032.75;;;7.53;100.00
21753;BME280;11038;50.940;20.564;2022-09-21T01:47:40;98027.72;;;7.50;100.00
21753;BME280;11038;50.940;20.564;2022-09-21T01:49:20;98034.88;;;7.49;100.00
21753;BME280;11038;50.940;20.564;2022-09-21T01:50:56;98029.56;;;7.49;100.00
21753;BME280;11038;50.940;20.564;2022-09-21T01:55:07;98037.09;;;7.54;100.00
21753;BME280;11038;50.940;20.564;2022-09-21T01:56:47;98038.06;;;7.53;100.00
21753;BME280;11038;50.940;20.564;2022-09-21T02:00:03;98044.81;;;7.57;100.00
21753;BME280;11038;50.940;20.564;2022-09-21T02:01:47;98046.47;;;7.58;100.00
21753;BME280;11038;50.940;20.564;2022-09-21T02:03:26;98040.00;;;7.61;100.00
21753;BME280;11038;50.940;20.564;2022-09-21T02:05:02;98039.88;;;7.62;100.00
21753;BME280;11038;50.940;20.564;2022-09-21T02:06:40;98044.81;;;7.57;100.00
21753;BME280;11038;50.940;20.564;2022-09-21T02:08:15;98050.25;;;7.66;100.00
21753;BME280;11038;50.940;20.564;2022-09-21T02:09:47;98052.91;;;7.66;100.00
21753;BME280;11038;50.940;20.564;2022-09-21T02:11:19;98050.94;;;7.68;100.00
21753;BME280;11038;50.940;20.564;2022-09-21T02:12:59;98049.97;;;7.69;100.00
21753;BME280;11038;50.940;20.564;2022-09-21T02:14:34;98048.13;;;7.69;100.00
21753;BME280;11038;50.940;20.564;2022-09-21T02:16:35;98061.00;;;7.74;100.00
21753;BME280;11038;50.940;20.564;2022-09-21T02:18:47;98058.75;;;7.69;100.00
21753;BME280;11038;50.940;20.564;2022-09-21T02:20:39;98054.56;;;7.67;100.00
21753;BME280;11038;50.940;20.564;2022-09-21T02:24:16;98057.94;;;7.69;100.00
21753;BME280;11038;50.940;20.564;2022-09-21T02:26:05;98052.19;;;7.73;100.00
21753;BME280;11038;50.940;20.564;2022-09-21T02:27:55;98052.19;;;7.73;100.00
21753;BME280;11038;50.940;20.564;2022-09-21T02:30:06;98053.72;;;7.76;100.00
21753;BME280;11038;50.940;20.564;2022-09-21T02:31:54;98052.88;;;7.75;100.00
21753;BME280;11038;50.940;20.564;2022-09-21T02:33:43;98051.72;;;7.78;100.00
21753;BME280;11038;50.940;20.564;2022-09-21T02:37:57;98052.03;;;7.75;100.00
21753;BME280;11038;50.940;20.564;2022-09-21T02:39:54;98047.25;;;7.79;100.00
21753;BME280;11038;50.940;20.564;2022-09-21T02:41:35;98047.25;;;7.79;100.00
21753;BME280;11038;50.940;20.564;2022-09-21T02:43:20;98048.13;;;7.69;100.00
21753;BME280;11038;50.940;20.564;2022-09-21T02:45:20;98052.03;;;7.75;100.00
21753;BME280;11038;50.940;20.564;2022-09-21T02:47:01;98060.00;;;7.75;100.00
21753;BME280;11038;50.940;20.564;2022-09-21T02:48:43;98049.66;;;7.72;100.00
21753;BME280;11038;50.940;20.564;2022-09-21T02:50:30;98048.38;;;7.76;100.00
21753;BME280;11038;50.940;20.564;2022-09-21T02:52:11;98053.56;;;7.78;100.00
21753;BME280;11038;50.940;20.564;2022-09-21T02:53:47;98051.19;;;7.74;100.00
21753;BME280;11038;50.940;20.564;2022-09-21T02:55:22;98056.22;;;7.78;100.00
21753;BME280;11038;50.940;20.564;2022-09-21T02:56:58;98051.44;;;7.81;100.00
21753;BME280;11038;50.940;20.564;2022-09-21T02:58:37;98055.94;;;7.81;100.00
21753;BME280;11038;50.940;20.564;2022-09-21T03:00:11;98055.78;;;7.82;100.00
21753;BME280;11038;50.940;20.564;2022-09-21T03:01:44;98043.59;;;7.80;100.00
21753;BME280;11038;50.940;20.564;2022-09-21T03:03:20;98056.91;;;7.80;100.00
21753;BME280;11038;50.940;20.564;2022-09-21T03:04:53;98054.94;;;7.82;100.00
21753;BME280;11038;50.940;20.564;2022-09-21T03:06:25;98060.13;;;7.83;100.00
21753;BME280;11038;50.940;20.564;2022-09-21T03:07:57;98054.66;;;7.85;100.00
21753;BME280;11038;50.940;20.564;2022-09-21T03:09:31;98060.69;;;7.87;100.00
21753;BME280;11038;50.940;20.564;2022-09-21T03:11:03;98055.63;;;7.84;100.00
21753;BME280;11038;50.940;20.564;2022-09-21T03:12:36;98061.66;;;7.86;100.00
21753;BME280;11038;50.940;20.564;2022-09-21T03:14:09;98055.47;;;7.85;100.00
21753;BME280;11038;50.940;20.564;2022-09-21T03:15:41;98062.66;;;7.85;100.00
21753;BME280;11038;50.940;20.564;2022-09-21T03:17:14;98061.53;;;7.88;100.00
21753;BME280;11038;50.940;20.564;2022-09-21T03:18:46;98058.69;;;7.89;100.00
21753;BME280;11038;50.940;20.564;2022-09-21T03:20:19;98068.22;;;7.92;100.00
21753;BME280;11038;50.940;20.564;2022-09-21T03:21:51;98068.22;;;7.92;100.00
21753;BME280;11038;50.940;20.564;2022-09-21T03:23:25;98067.25;;;7.93;100.00
21753;BME280;11038;50.940;20.564;2022-09-21T03:24:58;98066.25;;;7.94;100.00
21753;BME280;11038;50.940;20.564;2022-09-21T03:26:30;98070.59;;;7.95;100.00
21753;BME280;11038;50.940;20.564;2022-09-21T03:28:03;98071.28;;;7.97;100.00
21753;BME280;11038;50.940;20.564;2022-09-21T03:29:35;98076.31;;;8.00;100.00
21753;BME280;11038;50.940;20.564;2022-09-21T03:31:07;98068.16;;;8.02;100.00
21753;BME280;11038;50.940;20.564;2022-09-21T03:32:40;98070.31;;;7.98;100.00
21753;BME280;11038;50.940;20.564;2022-09-21T03:34:12;98071.84;;;8.01;100.00
21753;BME280;11038;50.940;20.564;2022-09-21T03:35:47;98070.69;;;8.03;100.00
21753;BME280;11038;50.940;20.564;2022-09-21T03:37:19;98064.69;;;8.01;100.00
21753;BME280;11038;50.940;20.564;2022-09-21T03:38:52;98066.22;;;8.04;100.00
21753;BME280;11038;50.940;20.564;2022-09-21T03:40:24;98070.81;;;8.02;100.00
21753;BME280;11038;50.940;20.564;2022-09-21T03:41:58;98074.34;;;8.02;100.00
21753;BME280;11038;50.940;20.564;2022-09-21T03:43:31;98075.06;;;8.04;100.00
21753;BME280;11038;50.940;20.564;2022-09-21T03:45:04;98066.34;;;8.02;100.00
21753;BME280;11038;50.940;20.564;2022-09-21T03:46:37;98075.06;;;8.04;100.00
21753;BME280;11038;50.940;20.564;2022-09-21T03:48:11;98068.16;;;8.02;100.00
21753;BME280;11038;50.940;20.564;2022-09-21T03:49:43;98072.38;;;8.04;100.00
21753;BME280;11038;50.940;20.564;2022-09-21T03:51:15;98075.75;;;8.06;100.00
21753;BME280;11038;50.940;20.564;2022-09-21T03:52:48;98075.06;;;8.04;100.00
21753;BME280;11038;50.940;20.564;2022-09-21T03:54:21;98078.41;;;8.06;100.00
21753;BME280;11038;50.940;20.564;2022-09-21T03:55:53;98071.25;;;8.07;100.00
21753;BME280;11038;50.940;20.564;2022-09-21T03:57:25;98078.53;;;8.05;100.00
21753;BME280;11038;50.940;20.564;2022-09-21T03:58:57;98079.94;;;8.09;100.00
21753;BME280;11038;50.940;20.564;2022-09-21T04:00:30;98083.84;;;8.05;100.00
21753;BME280;11038;50.940;20.564;2022-09-21T04:02:03;98078.69;;;8.03;100.00
21753;BME280;11038;50.940;20.564;2022-09-21T04:03:35;98088.03;;;8.07;100.00
21753;BME280;11038;50.940;20.564;2022-09-21T04:05:11;98085.25;;;8.09;100.00
21753;BME280;11038;50.940;20.564;2022-09-21T04:06:48;98084.25;;;8.10;100.00
21753;BME280;11038;50.940;20.564;2022-09-21T04:08:20;98084.13;;;8.12;100.00
21753;BME280;11038;50.940;20.564;2022-09-21T04:09:52;98090.19;;;8.04;100.00
21753;BME280;11038;50.940;20.564;2022-09-21T04:11:25;98086.50;;;8.05;100.00
21753;BME280;11038;50.940;20.564;2022-09-21T04:13:02;98085.53;;;8.06;100.00
21753;BME280;11038;50.940;20.564;2022-09-21T04:14:35;98079.09;;;8.08;100.00
21753;BME280;11038;50.940;20.564;2022-09-21T04:16:09;98087.91;;;8.09;100.00
21753;BME280;11038;50.940;20.564;2022-09-21T04:17:41;98093.06;;;8.11;100.00
21753;BME280;11038;50.940;20.564;2022-09-21T04:19:14;98082.72;;;8.07;100.00
21753;BME280;11038;50.940;20.564;2022-09-21T04:20:47;98092.69;;;8.05;100.00
21753;BME280;11038;50.940;20.564;2022-09-21T04:22:19;98092.53;;;8.07;100.00
21753;BME280;11038;50.940;20.564;2022-09-21T04:23:51;98092.22;;;8.10;100.00
21753;BME280;11038;50.940;20.564;2022-09-21T04:25:24;98094.75;;;8.12;100.00
21753;BME280;11038;50.940;20.564;2022-09-21T04:26:56;98089.44;;;8.12;100.00
21753;BME280;11038;50.940;20.564;2022-09-21T04:28:28;98093.22;;;8.09;100.00
21753;BME280;11038;50.940;20.564;2022-09-21T04:30:00;98099.69;;;8.06;100.00
21753;BME280;11038;50.940;20.564;2022-09-21T04:31:33;98092.28;;;8.00;100.00
21753;BME280;11038;50.940;20.564;2022-09-21T04:33:05;98098.16;;;8.04;100.00
21753;BME280;11038;50.940;20.564;2022-09-21T04:34:37;98099.00;;;8.04;100.00
21753;BME280;11038;50.940;20.564;2022-09-21T04:36:11;98099.53;;;8.08;100.00
21753;BME280;11038;50.940;20.564;2022-09-21T04:37:43;98095.91;;;8.09;100.00
21753;BME280;11038;50.940;20.564;2022-09-21T04:39:15;98096.63;;;8.01;100.00
21753;BME280;11038;50.940;20.564;2022-09-21T04:40:56;98094.50;;;8.05;100.00
21753;BME280;11038;50.940;20.564;2022-09-21T04:42:29;98101.34;;;8.07;100.00
21753;BME280;11038;50.940;20.564;2022-09-21T04:44:01;98098.69;;;8.07;100.00
21753;BME280;11038;50.940;20.564;2022-09-21T04:45:33;98091.53;;;8.08;100.00
21753;BME280;11038;50.940;20.564;2022-09-21T04:47:06;98094.22;;;8.08;100.00
21753;BME280;11038;50.940;20.564;2022-09-21T04:48:39;98096.75;;;8.10;100.00
21753;BME280;11038;50.940;20.564;2022-09-21T04:50:11;98097.56;;;8.10;100.00
21753;BME280;11038;50.940;20.564;2022-09-21T04:51:44;98103.72;;;8.11;100.00
21753;BME280;11038;50.940;20.564;2022-09-21T04:53:16;98099.13;;;8.03;100.00
21753;BME280;11038;50.940;20.564;2022-09-21T04:54:49;98104.84;;;8.08;100.00
21753;BME280;11038;50.940;20.564;2022-09-21T04:56:22;98103.88;;;8.09;100.00
21753;BME280;11038;50.940;20.564;2022-09-21T04:57:54;98109.66;;;8.04;100.00
21753;BME280;11038;50.940;20.564;2022-09-21T04:59:26;98113.13;;;8.05;100.00
21753;BME280;11038;50.940;20.564;2022-09-21T05:00:59;98121.94;;;8.05;100.00
21753;BME280;11038;50.940;20.564;2022-09-21T05:02:31;98114.13;;;8.04;100.00
21753;BME280;11038;50.940;20.564;2022-09-21T05:04:04;98116.06;;;8.02;100.00
21753;BME280;11038;50.940;20.564;2022-09-21T05:05:36;98119.28;;;8.05;100.00
21753;BME280;11038;50.940;20.564;2022-09-21T05:07:09;98118.19;;;7.98;100.00
21753;BME280;11038;50.940;20.564;2022-09-21T05:08:41;98125.91;;;8.01;100.00
21753;BME280;11038;50.940;20.564;2022-09-21T05:10:33;98127.59;;;7.92;100.00
21753;BME280;11038;50.940;20.564;2022-09-21T05:12:06;98128.56;;;7.91;100.00
21753;BME280;11038;50.940;20.564;2022-09-21T05:13:39;98131.94;;;7.93;100.00
21753;BME280;11038;50.940;20.564;2022-09-21T05:15:12;98123.13;;;7.93;100.00
21753;BME280;11038;50.940;20.564;2022-09-21T05:16:44;98124.50;;;7.97;100.00
21753;BME280;11038;50.940;20.564;2022-09-21T05:18:20;98114.25;;;8.02;100.00
21753;BME280;11038;50.940;20.564;2022-09-21T05:19:53;98126.59;;;8.03;100.00
21753;BME280;11038;50.940;20.564;2022-09-21T05:21:25;98134.00;;;8.00;100.00
21753;BME280;11038;50.940;20.564;2022-09-21T05:23:01;98126.59;;;8.03;100.00
21753;BME280;11038;50.940;20.564;2022-09-21T05:24:33;98127.97;;;8.07;100.00
21753;BME280;11038;50.940;20.564;2022-09-21T05:26:06;98127.56;;;8.02;100.00
21753;BME280;11038;50.940;20.564;2022-09-21T05:27:38;98126.44;;;8.05;100.00
21753;BME280;11038;50.940;20.564;2022-09-21T05:29:11;98138.59;;;8.07;100.00
21753;BME280;11038;50.940;20.564;2022-09-21T05:30:49;98129.38;;;8.12;100.00
21753;BME280;11038;50.940;20.564;2022-09-21T05:33:00;98133.69;;;8.13;100.00
21753;BME280;11038;50.940;20.564;2022-09-21T05:37:05;98137.47;;;8.10;100.00
21753;BME280;11038;50.940;20.564;2022-09-21T05:38:39;98134.53;;;8.13;100.00
21753;BME280;11038;50.940;20.564;2022-09-21T05:40:12;98135.09;;;8.17;100.00
21753;BME280;11038;50.940;20.564;2022-09-21T05:41:45;98139.84;;;8.13;100.00
21753;BME280;11038;50.940;20.564;2022-09-21T05:43:18;98144.59;;;8.19;100.00
21753;BME280;11038;50.940;20.564;2022-09-21T05:44:51;98145.16;;;8.23;100.00
21753;BME280;11038;50.940;20.564;2022-09-21T05:46:37;98142.09;;;8.18;100.00
21753;BME280;11038;50.940;20.564;2022-09-21T05:48:18;98147.94;;;8.22;100.00
21753;BME280;11038;50.940;20.564;2022-09-21T05:54:19;98142.50;;;8.23;100.00
21753;BME280;11038;50.940;20.564;2022-09-21T05:56:29;98151.88;;;8.27;100.00
21753;BME280;11038;50.940;20.564;2022-09-21T06:00:15;98155.94;;;8.32;100.00
21753;BME280;11038;50.940;20.564;2022-09-21T06:03:48;98149.16;;;8.37;100.00
21753;BME280;11038;50.940;20.564;2022-09-21T06:05:21;98150.00;;;8.38;100.00
21753;BME280;11038;50.940;20.564;2022-09-21T06:06:54;98154.63;;;8.36;100.00
21753;BME280;11038;50.940;20.564;2022-09-21T06:08:27;98163.47;;;8.36;100.00
21753;BME280;11038;50.940;20.564;2022-09-21T06:09:59;98154.63;;;8.36;100.00
21753;BME280;11038;50.940;20.564;2022-09-21T06:11:32;98157.69;;;8.41;100.00
21753;BME280;11038;50.940;20.564;2022-09-21T06:13:04;98160.66;;;8.38;100.00
21753;BME280;11038;50.940;20.564;2022-09-21T06:14:37;98162.19;;;8.40;100.00
21753;BME280;11038;50.940;20.564;2022-09-21T06:16:10;98159.09;;;8.45;100.00
21753;BME280;11038;50.940;20.564;2022-09-21T06:17:42;98155.16;;;8.49;100.00
21753;BME280;11038;50.940;20.564;2022-09-21T06:19:15;98163.44;;;8.46;100.00
21753;BME280;11038;50.940;20.564;2022-09-21T06:20:47;98167.50;;;8.50;100.00
21753;BME280;11038;50.940;20.564;2022-09-21T06:22:19;98166.06;;;8.56;100.00
21753;BME280;11038;50.940;20.564;2022-09-21T06:23:52;98169.69;;;8.55;100.00
21753;BME280;11038;50.940;20.564;2022-09-21T06:25:24;98171.94;;;8.60;100.00
21753;BME280;11038;50.940;20.564;2022-09-21T06:26:56;98167.88;;;8.56;100.00
21753;BME280;11038;50.940;20.564;2022-09-21T06:28:29;98166.34;;;8.53;100.00
21753;BME280;11038;50.940;20.564;2022-09-21T06:30:02;98170.53;;;8.56;100.00
21753;BME280;11038;50.940;20.564;2022-09-21T06:31:35;98168.00;;;8.54;100.00
21753;BME280;11038;50.940;20.564;2022-09-21T06:33:08;98170.53;;;8.56;100.00
21753;BME280;11038;50.940;20.564;2022-09-21T06:34:40;98171.81;;;8.61;100.00
21753;BME280;11038;50.940;20.564;2022-09-21T06:36:15;98167.63;;;8.59;100.00
21753;BME280;11038;50.940;20.564;2022-09-21T06:37:48;98166.63;;;8.60;100.00
21753;BME280;11038;50.940;20.564;2022-09-21T06:39:20;98172.94;;;8.59;100.00
21753;BME280;11038;50.940;20.564;2022-09-21T06:40:53;98176.31;;;8.61;100.00
21753;BME280;11038;50.940;20.564;2022-09-21T06:42:26;98174.47;;;8.61;100.00
21753;BME280;11038;50.940;20.564;2022-09-21T06:43:59;98177.25;;;8.70;100.00
21753;BME280;11038;50.940;20.564;2022-09-21T06:45:31;98179.75;;;8.71;100.00
21753;BME280;11038;50.940;20.564;2022-09-21T06:47:04;98177.09;;;8.71;100.00
21753;BME280;11038;50.940;20.564;2022-09-21T06:48:36;98173.75;;;8.69;100.00
21753;BME280;11038;50.940;20.564;2022-09-21T06:50:08;98176.41;;;8.69;100.00
21753;BME280;11038;50.940;20.564;2022-09-21T06:51:40;98179.47;;;8.74;100.00
21753;BME280;11038;50.940;20.564;2022-09-21T06:53:14;98179.47;;;8.74;100.00
21753;BME280;11038;50.940;20.564;2022-09-21T06:54:47;98176.63;;;8.76;100.00
21753;BME280;11038;50.940;20.564;2022-09-21T06:56:19;98176.91;;;8.83;100.00
21753;BME280;11038;50.940;20.564;2022-09-21T06:57:52;98180.41;;;8.83;100.00
21753;BME280;11038;50.940;20.564;2022-09-21T06:59:24;98175.22;;;8.82;100.00
21753;BME280;11038;50.940;20.564;2022-09-21T07:00:56;98184.06;;;8.82;100.00
21753;BME280;11038;50.940;20.564;2022-09-21T07:02:29;98192.13;;;8.91;100.00
21753;BME280;11038;50.940;20.564;2022-09-21T07:04:01;98188.63;;;8.90;100.00
21753;BME280;11038;50.940;20.564;2022-09-21T07:05:33;98191.97;;;8.92;100.00
21753;BME280;11038;50.940;20.564;2022-09-21T07:07:05;98183.69;;;8.95;100.00
21753;BME280;11038;50.940;20.564;2022-09-21T07:08:38;98186.34;;;8.95;100.00
21753;BME280;11038;50.940;20.564;2022-09-21T07:10:31;98186.94;;;8.89;100.00
21753;BME280;11038;50.940;20.564;2022-09-21T07:12:03;98196.63;;;8.90;100.00
21753;BME280;11038;50.940;20.564;2022-09-21T07:13:36;98194.34;;;8.95;100.00
21753;BME280;11038;50.940;20.564;2022-09-21T07:15:10;98193.91;;;9.00;100.00
21753;BME280;11038;50.940;20.564;2022-09-21T07:16:42;98191.94;;;9.02;100.00
21753;BME280;11038;50.940;20.564;2022-09-21T07:18:15;98190.13;;;9.03;100.00
21753;BME280;11038;50.940;20.564;2022-09-21T07:19:48;98192.47;;;9.06;100.00
21753;BME280;11038;50.940;20.564;2022-09-21T07:21:21;98188.75;;;9.17;100.00
21753;BME280;11038;50.940;20.564;2022-09-21T07:22:53;98190.19;;;9.11;100.00
21753;BME280;11038;50.940;20.564;2022-09-21T07:24:25;98192.50;;;9.24;100.00
21753;BME280;11038;50.940;20.564;2022-09-21T07:26:05;98194.88;;;9.27;100.00
21753;BME280;11038;50.940;20.564;2022-09-21T07:27:39;98191.59;;;9.34;100.00
21753;BME280;11038;50.940;20.564;2022-09-21T07:29:11;98191.66;;;9.42;100.00
21753;BME280;11038;50.940;20.564;2022-09-21T07:30:44;98193.38;;;9.43;100.00
21753;BME280;11038;50.940;20.564;2022-09-21T07:32:16;98198.69;;;9.43;100.00
21753;BME280;11038;50.940;20.564;2022-09-21T07:33:55;98210.72;;;9.47;100.00
21753;BME280;11038;50.940;20.564;2022-09-21T07:35:28;98198.91;;;9.50;100.00
21753;BME280;11038;50.940;20.564;2022-09-21T07:37:00;98205.25;;;9.49;100.00
21753;BME280;11038;50.940;20.564;2022-09-21T07:38:38;98203.09;;;9.52;100.00
21753;BME280;11038;50.940;20.564;2022-09-21T07:40:11;98210.28;;;9.52;100.00
21753;BME280;11038;50.940;20.564;2022-09-21T07:41:44;98208.00;;;9.57;100.00
21753;BME280;11038;50.940;20.564;2022-09-21T07:43:16;98211.72;;;9.65;100.00
21753;BME280;11038;50.940;20.564;2022-09-21T07:44:49;98212.28;;;9.68;100.00
21753;BME280;11038;50.940;20.564;2022-09-21T07:46:23;98210.03;;;9.63;100.00
21753;BME280;11038;50.940;20.564;2022-09-21T07:48:05;98212.41;;;9.67;100.00
21753;BME280;11038;50.940;20.564;2022-09-21T07:49:37;98213.09;;;9.69;100.00
21753;BME280;11038;50.940;20.564;2022-09-21T07:51:13;98207.00;;;9.58;100.00
21753;BME280;11038;50.940;20.564;2022-09-21T07:52:46;98209.91;;;9.65;100.00
21753;BME280;11038;50.940;20.564;2022-09-21T07:54:18;98213.00;;;9.60;100.00
21753;BME280;11038;50.940;20.564;2022-09-21T07:55:50;98213.41;;;9.66;100.00
21753;BME280;11038;50.940;20.564;2022-09-21T07:57:23;98211.13;;;9.71;100.00
21753;BME280;11038;50.940;20.564;2022-09-21T07:59:14;98209.81;;;9.75;100.00
21753;BME280;11038;50.940;20.564;2022-09-21T08:00:46;98211.44;;;9.68;100.00
21753;BME280;11038;50.940;20.564;2022-09-21T08:02:19;98215.16;;;9.75;100.00
21753;BME280;11038;50.940;20.564;2022-09-21T08:03:54;98215.38;;;9.82;100.00
21753;BME280;11038;50.940;20.564;2022-09-21T08:05:27;98210.97;;;9.72;100.00
21753;BME280;11038;50.940;20.564;2022-09-21T08:06:59;98210.56;;;9.85;100.00
21753;BME280;11038;50.940;20.564;2022-09-21T08:08:31;98212.31;;;9.95;100.00
21753;BME280;11038;50.940;20.564;2022-09-21T08:10:04;98216.34;;;9.99;100.00
21753;BME280;11038;50.940;20.564;2022-09-21T08:11:36;98211.91;;;10.08;100.00
21753;BME280;11038;50.940;20.564;2022-09-21T08:13:09;98210.34;;;10.24;100.00
21753;BME280;11038;50.940;20.564;2022-09-21T08:14:41;98212.22;;;10.32;100.00
21753;BME280;11038;50.940;20.564;2022-09-21T08:16:14;98217.25;;;10.35;100.00
21753;BME280;11038;50.940;20.564;2022-09-21T08:17:47;98218.94;;;10.36;100.00
21753;BME280;11038;50.940;20.564;2022-09-21T08:19:19;98218.09;;;10.35;100.00
21753;BME280;11038;50.940;20.564;2022-09-21T08:20:53;98217.13;;;10.36;100.00
21753;BME280;11038;50.940;20.564;2022-09-21T08:22:26;98224.28;;;10.36;100.00
21753;BME280;11038;50.940;20.564;2022-09-21T08:23:59;98224.59;;;10.33;100.00
21753;BME280;11038;50.940;20.564;2022-09-21T08:25:31;98213.44;;;10.37;100.00
21753;BME280;11038;50.940;20.564;2022-09-21T08:27:05;98219.97;;;10.43;100.00
21753;BME280;11038;50.940;20.564;2022-09-21T08:28:38;98218.09;;;10.62;100.00
21753;BME280;11038;50.940;20.564;2022-09-21T08:30:11;98224.69;;;10.76;100.00
21753;BME280;11038;50.940;20.564;2022-09-21T08:31:44;98230.66;;;10.96;100.00
21753;BME280;11038;50.940;20.564;2022-09-21T08:33:17;98226.84;;;11.07;100.00
21753;BME280;11038;50.940;20.564;2022-09-21T08:34:50;98228.72;;;11.24;100.00
21753;BME280;11038;50.940;20.564;2022-09-21T08:36:23;98225.41;;;11.38;100.00
21753;BME280;11038;50.940;20.564;2022-09-21T08:37:55;98231.81;;;11.54;100.00
21753;BME280;11038;50.940;20.564;2022-09-21T08:39:27;98234.16;;;11.66;100.00
21753;BME280;11038;50.940;20.564;2022-09-21T08:41:02;98232.50;;;11.73;100.00
21753;BME280;11038;50.940;20.564;2022-09-21T08:45:08;98234.50;;;11.71;100.00
21753;BME280;11038;50.940;20.564;2022-09-21T08:46:45;98230.50;;;11.75;100.00
21753;BME280;11038;50.940;20.564;2022-09-21T08:48:28;98233.81;;;11.69;100.00
21753;BME280;11038;50.940;20.564;2022-09-21T08:50:28;98236.34;;;11.70;100.00
21753;BME280;11038;50.940;20.564;2022-09-21T08:52:07;98236.47;;;11.60;100.00
21753;BME280;11038;50.940;20.564;2022-09-21T08:53:51;98234.81;;;11.59;100.00
21753;BME280;11038;50.940;20.564;2022-09-21T08:55:25;98242.69;;;11.61;100.00
21753;BME280;11038;50.940;20.564;2022-09-21T08:56:57;98242.34;;;11.64;100.00